M I D A S
Marine Information and Data Acquisition System
Tripno 1489 of the Zeeleeuw from 2008-05-21 06:32:22 to 2008-05-21 16:55:35
Back to CruiseResearch ActivitiesStationsMapUnderway DataData graphs

EquipmentUnitsComment
TimeDGPSUTC
LatitudeDGPSDM.mWGS84
LongitudeDGPSDM.mWGS84
HeadingGyrodeg 
SOGDGPSknotsSpeed over ground
COGDGPSdegCourse over ground
DepthEcho soundermeters200 kHz
Missing or incorrect values are displayed as -999
Navigation data collected by the RV Zeeleeuw from 2008-05-21 06:09:43 to 2008-05-21 17:03:14
                                                                                    Next 1000 lines
Time Latitude Longitude Heading SOG COG Depth
2008-05-21 06:09:54 51°13.62 2°56.047 122.5 -999 121 -999
2008-05-21 06:09:58 51°13.621 2°56.047 122.4 -999 7 -999
2008-05-21 06:10:03 51°13.621 2°56.047 122.4 -999 208 -999
2008-05-21 06:10:09 51°13.621 2°56.047 122.3 -999 230 -999
2008-05-21 06:10:14 51°13.621 2°56.048 122.3 -999 253 -999
2008-05-21 06:10:18 51°13.621 2°56.047 122.3 -999 269 5.8
2008-05-21 06:10:23 51°13.621 2°56.047 122.3 -999 314 5.9
2008-05-21 06:10:28 51°13.621 2°56.047 122.3 -999 9 -999
2008-05-21 06:10:34 51°13.621 2°56.047 122.3 -999 67 -999
2008-05-21 06:10:39 51°13.622 2°56.048 122.3 -999 41 5.9
2008-05-21 06:10:43 51°13.622 2°56.048 122.3 -999 310 5.8
2008-05-21 06:10:48 51°13.622 2°56.048 122.3 -999 340 -999
2008-05-21 06:10:54 51°13.622 2°56.048 122.2 -999 353 -999
2008-05-21 06:10:59 51°13.622 2°56.048 122.2 -999 309 -999
2008-05-21 06:11:03 51°13.622 2°56.048 122.2 -999 346 -999
2008-05-21 06:11:08 51°13.622 2°56.047 122.2 -999 1 -999
2008-05-21 06:11:13 51°13.622 2°56.047 122.1 -999 287 -999
2008-05-21 06:11:19 51°13.622 2°56.047 122.1 -999 271 -999
2008-05-21 06:11:23 51°13.622 2°56.047 122.1 -999 124 -999
2008-05-21 06:11:28 51°13.622 2°56.047 122 -999 197 -999
2008-05-21 06:11:33 51°13.622 2°56.047 121.9 -999 151 -999
2008-05-21 06:11:38 51°13.622 2°56.048 121.9 -999 354 -999
2008-05-21 06:11:44 51°13.622 2°56.048 121.9 -999 301 -999
2008-05-21 06:11:49 51°13.621 2°56.048 121.9 -999 222 -999
2008-05-21 06:11:54 51°13.622 2°56.048 121.9 -999 132 -999
2008-05-21 06:11:58 51°13.622 2°56.049 121.9 -999 130 -999
2008-05-21 06:12:04 51°13.622 2°56.049 121.9 -999 351 -999
2008-05-21 06:12:09 51°13.623 2°56.049 121.9 -999 348 -999
2008-05-21 06:12:14 51°13.622 2°56.049 121.9 -999 105 -999
2008-05-21 06:12:18 51°13.622 2°56.049 121.9 -999 164 -999
2008-05-21 06:12:23 51°13.623 2°56.049 121.9 -999 57 -999
2008-05-21 06:12:28 51°13.623 2°56.05 121.9 -999 38 -999
2008-05-21 06:12:34 51°13.623 2°56.049 121.9 -999 299 -999
2008-05-21 06:12:38 51°13.623 2°56.049 121.9 -999 316 -999
2008-05-21 06:12:43 51°13.623 2°56.049 121.9 -999 5 -999
2008-05-21 06:12:48 51°13.623 2°56.049 121.9 -999 108 -999
2008-05-21 06:12:54 51°13.622 2°56.049 121.9 -999 190 -999
2008-05-21 06:12:59 51°13.623 2°56.048 121.9 -999 32 -999
2008-05-21 06:13:03 51°13.622 2°56.048 121.9 -999 338 -999
2008-05-21 06:13:08 51°13.622 2°56.048 121.9 -999 55 -999
2008-05-21 06:13:13 51°13.622 2°56.048 121.9 -999 79 -999
2008-05-21 06:13:19 51°13.623 2°56.048 121.8 -999 356 -999
2008-05-21 06:13:23 51°13.623 2°56.048 121.8 -999 315 -999
2008-05-21 06:13:28 51°13.623 2°56.048 121.8 -999 139 -999
2008-05-21 06:13:33 51°13.623 2°56.048 121.8 -999 320 -999
2008-05-21 06:13:39 51°13.623 2°56.048 121.8 -999 287 -999
2008-05-21 06:13:44 51°13.623 2°56.049 121.8 -999 17 -999
2008-05-21 06:13:49 51°13.623 2°56.049 121.8 -999 308 -999
2008-05-21 06:13:53 51°13.623 2°56.049 121.8 0.1 321 -999
2008-05-21 06:13:59 51°13.623 2°56.049 121.8 -999 229 -999
2008-05-21 06:14:04 51°13.623 2°56.049 121.8 -999 342 -999
2008-05-21 06:14:09 51°13.623 2°56.049 121.8 -999 342 -999
2008-05-21 06:14:13 51°13.623 2°56.049 121.8 -999 321 -999
2008-05-21 06:14:18 51°13.623 2°56.048 121.8 -999 325 -999
2008-05-21 06:14:24 51°13.623 2°56.048 121.8 -999 58 -999
2008-05-21 06:14:29 51°13.622 2°56.048 121.8 -999 308 -999
2008-05-21 06:14:34 51°13.622 2°56.047 121.8 -999 131 -999
2008-05-21 06:14:38 51°13.622 2°56.047 121.8 -999 266 -999
2008-05-21 06:14:43 51°13.622 2°56.047 121.8 -999 253 -999
2008-05-21 06:14:49 51°13.622 2°56.047 121.8 -999 270 -999
2008-05-21 06:14:54 51°13.622 2°56.047 121.8 -999 188 -999
2008-05-21 06:14:59 51°13.622 2°56.048 121.8 -999 141 -999
2008-05-21 06:15:03 51°13.623 2°56.048 121.8 -999 176 -999
2008-05-21 06:15:09 51°13.623 2°56.048 121.8 -999 69 -999
2008-05-21 06:15:14 51°13.623 2°56.048 121.8 -999 74 -999
2008-05-21 06:15:19 51°13.623 2°56.048 121.8 -999 327 -999
2008-05-21 06:15:23 51°13.623 2°56.048 121.8 -999 159 -999
2008-05-21 06:15:28 51°13.623 2°56.048 121.8 -999 35 -999
2008-05-21 06:15:33 51°13.623 2°56.048 121.8 -999 341 -999
2008-05-21 06:15:39 51°13.622 2°56.048 121.8 -999 84 5.9
2008-05-21 06:15:43 51°13.622 2°56.047 121.8 -999 114 -999
2008-05-21 06:15:48 51°13.622 2°56.048 121.8 -999 73 5.9
2008-05-21 06:15:53 51°13.622 2°56.048 121.8 -999 111 -999
2008-05-21 06:15:59 51°13.622 2°56.048 121.8 -999 346 -999
2008-05-21 06:16:04 51°13.622 2°56.047 121.8 -999 351 -999
2008-05-21 06:16:08 51°13.622 2°56.047 121.8 -999 313 5.9
2008-05-21 06:16:13 51°13.623 2°56.047 121.8 -999 320 5.9
2008-05-21 06:16:18 51°13.623 2°56.048 121.8 -999 134 5.9
2008-05-21 06:16:23 51°13.623 2°56.048 121.8 -999 252 5.9
2008-05-21 06:16:28 51°13.623 2°56.048 121.8 -999 296 5.9
2008-05-21 06:16:34 51°13.623 2°56.048 121.8 -999 276 -999
2008-05-21 06:16:38 51°13.623 2°56.048 121.8 -999 124 -999
2008-05-21 06:16:43 51°13.623 2°56.048 121.8 -999 92 -999
2008-05-21 06:16:49 51°13.623 2°56.048 121.8 -999 307 -999
2008-05-21 06:16:54 51°13.623 2°56.048 121.8 -999 103 -999
2008-05-21 06:16:59 51°13.623 2°56.048 121.8 -999 232 -999
2008-05-21 06:17:03 51°13.623 2°56.048 121.8 -999 37 -999
2008-05-21 06:17:09 51°13.623 2°56.048 121.8 -999 359 -999
2008-05-21 06:17:14 51°13.623 2°56.048 121.8 -999 350 -999
2008-05-21 06:17:19 51°13.623 2°56.048 121.8 -999 301 -999
2008-05-21 06:17:23 51°13.624 2°56.048 121.8 -999 288 -999
2008-05-21 06:17:28 51°13.624 2°56.048 121.8 -999 295 -999
2008-05-21 06:17:34 51°13.624 2°56.048 121.8 -999 343 -999
2008-05-21 06:17:39 51°13.624 2°56.048 121.8 -999 296 5.9
2008-05-21 06:17:44 51°13.624 2°56.048 121.8 -999 209 -999
2008-05-21 06:17:48 51°13.624 2°56.048 121.8 -999 184 -999
2008-05-21 06:17:53 51°13.624 2°56.048 121.7 -999 342 -999
2008-05-21 06:17:59 51°13.624 2°56.048 121.7 -999 336 -999
2008-05-21 06:18:03 51°13.624 2°56.048 121.7 -999 320 -999
2008-05-21 06:18:08 51°13.624 2°56.048 121.7 -999 344 -999
2008-05-21 06:18:13 51°13.624 2°56.048 121.7 -999 4 -999
2008-05-21 06:18:19 51°13.624 2°56.048 121.7 -999 144 -999
2008-05-21 06:18:24 51°13.624 2°56.048 121.7 -999 257 -999
2008-05-21 06:18:29 51°13.624 2°56.048 121.7 -999 338 -999
2008-05-21 06:18:34 51°13.624 2°56.048 121.7 -999 307 -999
2008-05-21 06:18:38 51°13.624 2°56.048 121.7 -999 315 -999
2008-05-21 06:18:44 51°13.624 2°56.048 121.7 -999 220 -999
2008-05-21 06:18:49 51°13.624 2°56.048 121.7 -999 189 -999
2008-05-21 06:18:53 51°13.624 2°56.048 121.7 -999 168 -999
2008-05-21 06:18:58 51°13.624 2°56.048 121.7 -999 94 -999
2008-05-21 06:19:03 51°13.623 2°56.047 121.7 -999 163 -999
2008-05-21 06:19:09 51°13.623 2°56.047 121.7 -999 144 -999
2008-05-21 06:19:14 51°13.623 2°56.047 121.7 -999 314 -999
2008-05-21 06:19:18 51°13.623 2°56.047 121.7 -999 179 -999
2008-05-21 06:19:23 51°13.623 2°56.047 121.7 -999 64 -999
2008-05-21 06:19:28 51°13.623 2°56.047 121.7 -999 171 -999
2008-05-21 06:19:34 51°13.623 2°56.047 121.7 -999 140 -999
2008-05-21 06:19:39 51°13.623 2°56.047 121.7 -999 92 -999
2008-05-21 06:19:43 51°13.623 2°56.047 121.7 -999 342 -999
2008-05-21 06:19:48 51°13.623 2°56.047 121.7 -999 313 -999
2008-05-21 06:19:54 51°13.623 2°56.047 121.7 -999 289 -999
2008-05-21 06:19:59 51°13.623 2°56.047 121.7 -999 330 -999
2008-05-21 06:20:03 51°13.623 2°56.047 121.6 -999 134 -999
2008-05-21 06:20:08 51°13.623 2°56.047 121.6 -999 157 -999
2008-05-21 06:20:13 51°13.623 2°56.047 121.6 -999 201 -999
2008-05-21 06:20:19 51°13.623 2°56.047 121.6 -999 316 -999
2008-05-21 06:20:24 51°13.623 2°56.047 121.6 -999 346 -999
2008-05-21 06:20:29 51°13.623 2°56.047 121.6 -999 122 -999
2008-05-21 06:20:33 51°13.624 2°56.047 121.6 -999 332 -999
2008-05-21 06:20:39 51°13.623 2°56.047 121.6 -999 346 -999
2008-05-21 06:20:44 51°13.623 2°56.047 121.6 -999 321 -999
2008-05-21 06:20:49 51°13.623 2°56.047 121.6 -999 288 -999
2008-05-21 06:20:53 51°13.623 2°56.047 121.6 -999 272 -999
2008-05-21 06:20:58 51°13.623 2°56.047 121.6 -999 155 -999
2008-05-21 06:21:04 51°13.623 2°56.047 121.5 -999 174 -999
2008-05-21 06:21:09 51°13.623 2°56.047 121.5 -999 328 -999
2008-05-21 06:21:14 51°13.623 2°56.047 121.5 -999 331 -999
2008-05-21 06:21:18 51°13.623 2°56.047 121.5 -999 283 -999
2008-05-21 06:21:23 51°13.623 2°56.047 121.5 -999 340 -999
2008-05-21 06:21:29 51°13.623 2°56.047 121.5 -999 349 -999
2008-05-21 06:21:34 51°13.623 2°56.047 121.5 -999 282 -999
2008-05-21 06:21:39 51°13.623 2°56.047 121.5 -999 168 -999
2008-05-21 06:21:43 51°13.623 2°56.047 121.4 -999 250 -999
2008-05-21 06:21:48 51°13.623 2°56.047 121.4 -999 313 -999
2008-05-21 06:21:54 51°13.623 2°56.047 121.4 -999 234 -999
2008-05-21 06:21:59 51°13.623 2°56.047 121.4 -999 340 -999
2008-05-21 06:22:03 51°13.623 2°56.047 121.4 -999 338 -999
2008-05-21 06:22:08 51°13.623 2°56.047 121.4 -999 354 -999
2008-05-21 06:22:14 51°13.623 2°56.047 121.4 -999 319 -999
2008-05-21 06:22:19 51°13.623 2°56.047 121.4 -999 302 -999
2008-05-21 06:22:24 51°13.623 2°56.047 121.4 -999 342 -999
2008-05-21 06:22:29 51°13.623 2°56.047 121.4 -999 341 -999
2008-05-21 06:22:33 51°13.623 2°56.047 121.4 -999 19 -999
2008-05-21 06:22:39 51°13.623 2°56.047 121.4 -999 246 -999
2008-05-21 06:22:44 51°13.623 2°56.048 121.4 -999 251 -999
2008-05-21 06:22:49 51°13.623 2°56.048 121.4 -999 200 -999
2008-05-21 06:22:53 51°13.623 2°56.047 121.4 -999 108 -999
2008-05-21 06:22:58 51°13.623 2°56.047 121.4 -999 178 -999
2008-05-21 06:23:04 51°13.623 2°56.047 121.4 -999 281 -999
2008-05-21 06:23:09 51°13.623 2°56.047 121.3 -999 330 -999
2008-05-21 06:23:13 51°13.623 2°56.047 121.3 -999 207 -999
2008-05-21 06:23:18 51°13.623 2°56.047 121.3 -999 226 -999
2008-05-21 06:23:24 51°13.623 2°56.047 121.3 -999 326 -999
2008-05-21 06:23:29 51°13.623 2°56.047 121.3 -999 332 -999
2008-05-21 06:23:34 51°13.623 2°56.047 121.3 -999 304 -999
2008-05-21 06:23:38 51°13.623 2°56.047 121.3 -999 322 -999
2008-05-21 06:23:43 51°13.623 2°56.047 121.3 -999 87 -999
2008-05-21 06:23:49 51°13.623 2°56.047 121.3 -999 286 -999
2008-05-21 06:23:54 51°13.623 2°56.048 121.2 -999 340 -999
2008-05-21 06:23:58 51°13.623 2°56.048 121.2 -999 346 -999
2008-05-21 06:24:03 51°13.623 2°56.048 121.2 -999 20 -999
2008-05-21 06:24:08 51°13.623 2°56.048 121.2 -999 228 -999
2008-05-21 06:24:14 51°13.623 2°56.049 121.2 -999 199 -999
2008-05-21 06:24:19 51°13.623 2°56.049 121.2 -999 272 -999
2008-05-21 06:24:24 51°13.624 2°56.049 121.2 -999 326 -999
2008-05-21 06:24:28 51°13.623 2°56.049 121.2 -999 229 -999
2008-05-21 06:24:34 51°13.623 2°56.049 121.2 -999 162 -999
2008-05-21 06:24:39 51°13.623 2°56.049 121.2 -999 201 -999
2008-05-21 06:24:43 51°13.623 2°56.049 121.2 -999 132 -999
2008-05-21 06:24:48 51°13.623 2°56.049 121.2 -999 316 -999
2008-05-21 06:24:53 51°13.623 2°56.049 121.2 -999 282 -999
2008-05-21 06:24:59 51°13.623 2°56.049 121.2 -999 173 -999
2008-05-21 06:25:04 51°13.623 2°56.049 121.2 -999 184 -999
2008-05-21 06:25:08 51°13.623 2°56.049 121.2 -999 223 -999
2008-05-21 06:25:13 51°13.623 2°56.049 121.2 -999 196 -999
2008-05-21 06:25:18 51°13.623 2°56.049 121.2 -999 203 -999
2008-05-21 06:25:24 51°13.623 2°56.049 121.1 -999 106 -999
2008-05-21 06:25:29 51°13.623 2°56.049 121.1 -999 76 -999
2008-05-21 06:25:34 51°13.623 2°56.049 121.1 -999 298 -999
2008-05-21 06:25:38 51°13.624 2°56.049 121.1 -999 197 -999
2008-05-21 06:25:43 51°13.624 2°56.049 121.1 -999 247 -999
2008-05-21 06:25:49 51°13.624 2°56.049 121.1 -999 354 -999
2008-05-21 06:25:54 51°13.624 2°56.049 121.1 -999 200 -999
2008-05-21 06:25:58 51°13.624 2°56.049 121.1 -999 304 -999
2008-05-21 06:26:03 51°13.624 2°56.049 121.1 -999 339 -999
2008-05-21 06:26:09 51°13.624 2°56.049 121.1 -999 162 -999
2008-05-21 06:26:14 51°13.624 2°56.049 121.1 -999 281 -999
2008-05-21 06:26:19 51°13.624 2°56.05 121.1 -999 3 -999
2008-05-21 06:26:23 51°13.624 2°56.05 121.1 -999 268 -999
2008-05-21 06:26:29 51°13.624 2°56.05 121.1 -999 111 -999
2008-05-21 06:26:34 51°13.624 2°56.05 121.1 -999 335 -999
2008-05-21 06:26:39 51°13.624 2°56.05 121.1 -999 350 -999
2008-05-21 06:26:43 51°13.624 2°56.05 121.1 -999 266 -999
2008-05-21 06:26:48 51°13.624 2°56.05 121.1 -999 239 -999
2008-05-21 06:26:54 51°13.624 2°56.05 121.1 -999 327 -999
2008-05-21 06:26:59 51°13.624 2°56.049 121.1 -999 268 -999
2008-05-21 06:27:03 51°13.624 2°56.049 121.3 -999 16 5.8
2008-05-21 06:27:08 51°13.624 2°56.05 121.6 -999 306 -999
2008-05-21 06:27:13 51°13.624 2°56.049 121.9 0.1 343 -999
2008-05-21 06:27:19 51°13.624 2°56.049 122.2 -999 296 -999
2008-05-21 06:27:24 51°13.624 2°56.049 122.6 -999 267 -999
2008-05-21 06:27:29 51°13.624 2°56.049 122.9 -999 318 5.8
2008-05-21 06:27:34 51°13.624 2°56.049 123.3 -999 286 -999
2008-05-21 06:27:38 51°13.624 2°56.049 123.6 -999 295 5.8
2008-05-21 06:27:44 51°13.624 2°56.049 124 -999 266 -999
2008-05-21 06:27:48 51°13.624 2°56.049 124.2 -999 314 -999
2008-05-21 06:27:54 51°13.624 2°56.049 124.6 0.1 283 -999
2008-05-21 06:27:58 51°13.624 2°56.048 124.7 -999 285 -999
2008-05-21 06:28:03 51°13.624 2°56.048 124.8 -999 331 5.9
2008-05-21 06:28:09 51°13.624 2°56.048 125 -999 243 -999
2008-05-21 06:28:14 51°13.624 2°56.048 125 -999 218 -999
2008-05-21 06:28:18 51°13.623 2°56.048 125.1 -999 215 -999
2008-05-21 06:28:23 51°13.624 2°56.048 125.1 -999 353 -999
2008-05-21 06:28:29 51°13.624 2°56.048 125.1 -999 358 -999
2008-05-21 06:28:34 51°13.624 2°56.048 125.1 -999 6 -999
2008-05-21 06:28:39 51°13.624 2°56.048 125.1 -999 348 -999
2008-05-21 06:28:43 51°13.624 2°56.048 125.2 -999 233 -999
2008-05-21 06:28:48 51°13.623 2°56.048 125.2 -999 91 5.9
2008-05-21 06:28:54 51°13.623 2°56.048 125.2 -999 243 5.9
2008-05-21 06:28:59 51°13.623 2°56.048 125.2 -999 330 -999
2008-05-21 06:29:03 51°13.623 2°56.048 125.2 -999 58 -999
2008-05-21 06:29:08 51°13.623 2°56.048 125.1 -999 75 -999
2008-05-21 06:29:13 51°13.623 2°56.048 125 0.1 55 -999
2008-05-21 06:29:19 51°13.623 2°56.049 124.3 0.1 88 5.8
2008-05-21 06:29:23 51°13.623 2°56.049 123.5 0.1 157 -999
2008-05-21 06:29:28 51°13.623 2°56.049 122.1 -999 170 -999
2008-05-21 06:29:33 51°13.623 2°56.049 120.9 -999 190 -999
2008-05-21 06:29:39 51°13.623 2°56.048 120 0.1 200 -999
2008-05-21 06:29:44 51°13.623 2°56.048 119.3 -999 211 -999
2008-05-21 06:29:48 51°13.623 2°56.049 118.4 -999 189 -999
2008-05-21 06:29:53 51°13.623 2°56.049 117.6 -999 232 5.8
2008-05-21 06:29:58 51°13.623 2°56.049 116.9 -999 189 -999
2008-05-21 06:30:03 51°13.622 2°56.049 116.3 0.1 191 -999
2008-05-21 06:30:09 51°13.621 2°56.05 115.8 0.1 184 5.8
2008-05-21 06:30:13 51°13.622 2°56.049 115.2 -999 249 5.9
2008-05-21 06:30:18 51°13.622 2°56.049 114.6 -999 215 -999
2008-05-21 06:30:23 51°13.622 2°56.049 113.9 -999 268 -999
2008-05-21 06:30:29 51°13.622 2°56.049 113.4 0.1 270 -999
2008-05-21 06:30:34 51°13.622 2°56.048 113.1 0.1 275 -999
2008-05-21 06:30:39 51°13.622 2°56.048 112.9 0.1 278 -999
2008-05-21 06:30:43 51°13.622 2°56.048 112.7 0.2 291 5.9
2008-05-21 06:30:49 51°13.622 2°56.047 112.7 0.2 275 -999
2008-05-21 06:30:54 51°13.623 2°56.046 112.7 0.3 288 -999
2008-05-21 06:30:59 51°13.623 2°56.045 112.9 0.4 297 -999
2008-05-21 06:31:03 51°13.623 2°56.044 113.1 0.5 293 6
2008-05-21 06:31:08 51°13.623 2°56.043 113.4 0.6 295 6.1
2008-05-21 06:31:14 51°13.624 2°56.041 113.9 0.7 295 -999
2008-05-21 06:31:19 51°13.625 2°56.039 114.2 0.9 293 -999
2008-05-21 06:31:24 51°13.625 2°56.037 114.5 1 293 -999
2008-05-21 06:31:28 51°13.626 2°56.035 114.8 1 296 6.3
2008-05-21 06:31:33 51°13.626 2°56.033 115.2 1.1 296 -999
2008-05-21 06:31:39 51°13.627 2°56.03 115.5 1.2 297 -999
2008-05-21 06:31:43 51°13.628 2°56.028 115.7 1.2 295 6.4
2008-05-21 06:31:48 51°13.629 2°56.026 115.9 1.3 299 -999
2008-05-21 06:31:53 51°13.63 2°56.023 116 1.4 299 6.6
2008-05-21 06:31:59 51°13.631 2°56.02 116 1.4 299 -999
2008-05-21 06:32:03 51°13.632 2°56.018 116 1.5 297 -999
2008-05-21 06:32:08 51°13.633 2°56.015 115.7 1.6 300 6.6
2008-05-21 06:32:13 51°13.634 2°56.011 115.3 1.7 298 -999
2008-05-21 06:32:18 51°13.635 2°56.008 115.1 1.9 298 6.3
2008-05-21 06:32:23 51°13.636 2°56.003 114.7 2.1 297 6.2
2008-05-21 06:32:28 51°13.638 2°55.999 114.1 2.3 297 6.1
2008-05-21 06:32:34 51°13.64 2°55.993 113.6 2.4 295 -999
2008-05-21 06:32:39 51°13.641 2°55.988 112.5 2.5 295 -999
2008-05-21 06:32:43 51°13.642 2°55.984 112.2 2.6 295 -999
2008-05-21 06:32:49 51°13.644 2°55.977 112 2.8 294 -999
2008-05-21 06:32:54 51°13.646 2°55.971 111.9 2.9 295 -999
2008-05-21 06:32:59 51°13.648 2°55.965 111.8 3.1 295 -999
2008-05-21 06:33:03 51°13.649 2°55.96 111.8 3.2 294 -999
2008-05-21 06:33:09 51°13.651 2°55.952 111.8 3.3 295 -999
2008-05-21 06:33:14 51°13.653 2°55.945 112.1 3.4 294 -999
2008-05-21 06:33:19 51°13.655 2°55.938 112.1 3.4 296 -999
2008-05-21 06:33:23 51°13.657 2°55.933 111.9 3.5 294 -999
2008-05-21 06:33:28 51°13.659 2°55.926 111.7 3.6 296 -999
2008-05-21 06:33:34 51°13.661 2°55.917 111.4 3.6 294 -999
2008-05-21 06:33:39 51°13.663 2°55.909 111 3.7 295 -999
2008-05-21 06:33:44 51°13.665 2°55.902 110.5 3.7 294 -999
2008-05-21 06:33:49 51°13.668 2°55.894 109.7 3.8 294 -999
2008-05-21 06:33:53 51°13.669 2°55.888 108.5 3.8 293 -999
2008-05-21 06:33:59 51°13.671 2°55.878 107 3.8 291 -999
2008-05-21 06:34:04 51°13.673 2°55.87 105.2 3.8 290 -999
2008-05-21 06:34:09 51°13.675 2°55.862 103.5 3.8 288 7.6
2008-05-21 06:34:13 51°13.676 2°55.856 101.8 3.8 287 -999
2008-05-21 06:34:19 51°13.678 2°55.846 100.1 3.8 285 -999
2008-05-21 06:34:24 51°13.679 2°55.839 98.5 3.7 284 -999
2008-05-21 06:34:29 51°13.68 2°55.831 96.8 3.6 283 -999
2008-05-21 06:34:34 51°13.681 2°55.823 95.1 3.6 281 -999
2008-05-21 06:34:38 51°13.682 2°55.817 93.5 3.5 279 -999
2008-05-21 06:34:44 51°13.682 2°55.808 91.9 3.5 278 -999
2008-05-21 06:34:49 51°13.683 2°55.8 90.3 3.5 276 -999
2008-05-21 06:34:54 51°13.683 2°55.793 88.7 3.4 275 -999
2008-05-21 06:34:58 51°13.684 2°55.787 87.3 3.2 275 -999
2008-05-21 06:35:04 51°13.684 2°55.779 86.3 3.1 274 -999
2008-05-21 06:35:09 51°13.684 2°55.773 85.5 2.9 273 -999
2008-05-21 06:35:14 51°13.684 2°55.767 84.3 2.6 272 -999
2008-05-21 06:35:18 51°13.684 2°55.763 83.3 2.1 271 9.2
2008-05-21 06:35:23 51°13.685 2°55.76 81.4 1.6 272 9.2
2008-05-21 06:35:28 51°13.685 2°55.758 80 1.1 280 5.7
2008-05-21 06:35:34 51°13.685 2°55.756 76.6 0.7 295 9.2
2008-05-21 06:35:38 51°13.686 2°55.756 72.5 0.4 339 9.2
2008-05-21 06:35:43 51°13.687 2°55.756 68.8 0.7 20 9.4
2008-05-21 06:35:48 51°13.688 2°55.757 63.5 0.7 26 9.5
2008-05-21 06:35:54 51°13.689 2°55.758 57.5 0.7 16 9.7
2008-05-21 06:35:59 51°13.689 2°55.758 52.3 0.5 6 9.9
2008-05-21 06:36:03 51°13.69 2°55.757 48.9 0.3 302 10.2
2008-05-21 06:36:08 51°13.689 2°55.756 46 0.6 256 10.1
2008-05-21 06:36:13 51°13.689 2°55.754 43.2 0.9 235 10.1
2008-05-21 06:36:19 51°13.687 2°55.751 40.7 1.3 234 9.8
2008-05-21 06:36:23 51°13.686 2°55.749 38.4 1.5 227 9.8
2008-05-21 06:36:28 51°13.685 2°55.747 36.7 1.5 229 9.7
2008-05-21 06:36:33 51°13.683 2°55.745 34.8 1.4 229 -999
2008-05-21 06:36:39 51°13.683 2°55.742 33.2 1.1 236 -999
2008-05-21 06:36:44 51°13.682 2°55.741 31.1 0.6 255 -999
2008-05-21 06:36:49 51°13.683 2°55.741 25.9 0.6 337 -999
2008-05-21 06:36:54 51°13.685 2°55.741 19.6 1.2 357 -999
2008-05-21 06:36:58 51°13.687 2°55.741 11.8 1.9 357 -999
2008-05-21 06:37:04 51°13.692 2°55.74 3.3 2.6 352 6
2008-05-21 06:37:08 51°13.695 2°55.738 357.8 3 348 11.1
2008-05-21 06:37:14 51°13.7 2°55.735 349.5 3.2 340 -999
2008-05-21 06:37:19 51°13.704 2°55.733 342.7 3.4 340 -999
2008-05-21 06:37:23 51°13.708 2°55.73 338.4 3.5 334 -999
2008-05-21 06:37:28 51°13.713 2°55.726 335.2 3.7 335 11
2008-05-21 06:37:33 51°13.717 2°55.722 334.2 3.8 332 11
2008-05-21 06:37:39 51°13.723 2°55.718 333.1 3.9 333 10.1
2008-05-21 06:37:43 51°13.727 2°55.714 332.7 4 332 9.5
2008-05-21 06:37:48 51°13.732 2°55.71 332.7 4 334 9.2
2008-05-21 06:37:54 51°13.738 2°55.705 333.1 4.1 332 9.2
2008-05-21 06:37:58 51°13.742 2°55.702 333.4 4.2 334 9.1
2008-05-21 06:38:03 51°13.747 2°55.698 333.7 4.3 334 9
2008-05-21 06:38:08 51°13.753 2°55.694 333.8 4.4 335 8.8
2008-05-21 06:38:14 51°13.76 2°55.689 333.8 4.4 334 8.7
2008-05-21 06:38:19 51°13.765 2°55.685 333.9 4.5 335 8.7
2008-05-21 06:38:23 51°13.77 2°55.682 333.9 4.6 335 8.8
2008-05-21 06:38:28 51°13.776 2°55.677 334 4.6 335 8.8
2008-05-21 06:38:33 51°13.781 2°55.673 334 4.7 335 8.7
2008-05-21 06:38:39 51°13.788 2°55.668 334 4.7 335 8.8
2008-05-21 06:38:43 51°13.793 2°55.664 333.8 4.8 335 9.1
2008-05-21 06:38:48 51°13.799 2°55.659 333.4 4.8 335 8.7
2008-05-21 06:38:53 51°13.805 2°55.654 333.2 4.8 334 8.6
2008-05-21 06:38:58 51°13.811 2°55.649 333.1 4.9 334 8.6
2008-05-21 06:39:03 51°13.817 2°55.644 333.1 4.9 334 8.6
2008-05-21 06:39:08 51°13.824 2°55.64 333.2 4.9 334 8.6
2008-05-21 06:39:13 51°13.83 2°55.635 333.3 5 334 8.8
2008-05-21 06:39:18 51°13.836 2°55.63 333.1 5 333 9
2008-05-21 06:39:23 51°13.842 2°55.625 332.9 5.1 334 8.7
2008-05-21 06:39:28 51°13.848 2°55.62 332.9 5.1 334 8.8
2008-05-21 06:39:33 51°13.855 2°55.615 332.9 5.1 333 9
2008-05-21 06:39:38 51°13.861 2°55.61 333.1 5.1 334 9.1
2008-05-21 06:39:43 51°13.868 2°55.605 333.3 5.2 334 8.8
2008-05-21 06:39:48 51°13.874 2°55.6 333.3 5.1 334 9.4
2008-05-21 06:39:54 51°13.882 2°55.594 333.6 5.2 334 -999
2008-05-21 06:39:58 51°13.888 2°55.59 334 5.2 334 9.6
2008-05-21 06:40:03 51°13.894 2°55.585 334 5.2 333 9.5
2008-05-21 06:40:08 51°13.901 2°55.58 333.8 5.2 334 9.5
2008-05-21 06:40:14 51°13.909 2°55.575 333.8 5.2 334 8.9
2008-05-21 06:40:19 51°13.915 2°55.57 334.1 5.2 334 9.5
2008-05-21 06:40:23 51°13.921 2°55.566 334.4 5.2 335 8.9
2008-05-21 06:40:28 51°13.927 2°55.561 334.4 5.2 334 -999
2008-05-21 06:40:33 51°13.934 2°55.556 334.1 5.2 334 -999
2008-05-21 06:40:38 51°13.941 2°55.551 334.1 5.3 334 -999
2008-05-21 06:40:43 51°13.947 2°55.546 334.1 5.2 334 -999
2008-05-21 06:40:48 51°13.953 2°55.541 334.1 5.2 335 -999
2008-05-21 06:40:53 51°13.96 2°55.536 334.5 5.2 335 -999
2008-05-21 06:40:58 51°13.966 2°55.53 334.5 5.2 335 9.8
2008-05-21 06:41:03 51°13.973 2°55.525 334.5 5.3 335 8.9
2008-05-21 06:41:08 51°13.98 2°55.52 334.4 5.3 334 8.9
2008-05-21 06:41:13 51°13.986 2°55.515 334 5.2 335 8.9
2008-05-21 06:41:18 51°13.993 2°55.51 333.9 5.2 335 9.8
2008-05-21 06:41:23 51°13.999 2°55.505 334 5.2 335 -999
2008-05-21 06:41:28 51°14.006 2°55.5 334.1 5.2 334 9.8
2008-05-21 06:41:33 51°14.012 2°55.495 334.1 5.2 334 9.8
2008-05-21 06:41:38 51°14.019 2°55.49 333.8 5.2 335 9.7
2008-05-21 06:41:43 51°14.025 2°55.485 333.8 5.1 335 9.7
2008-05-21 06:41:48 51°14.032 2°55.481 334 5.2 336 9.8
2008-05-21 06:41:53 51°14.038 2°55.476 334.3 5.1 336 9.7
2008-05-21 06:41:58 51°14.045 2°55.471 334.5 5.1 336 9.6
2008-05-21 06:42:03 51°14.051 2°55.467 334.5 5.1 336 9.8
2008-05-21 06:42:08 51°14.058 2°55.462 334.3 5.1 337 9.6
2008-05-21 06:42:13 51°14.064 2°55.458 334 5.2 338 8.9
2008-05-21 06:42:18 51°14.071 2°55.454 334.5 5.2 339 9.8
2008-05-21 06:42:23 51°14.078 2°55.449 335.6 5.2 336 8.9
2008-05-21 06:42:28 51°14.084 2°55.444 335.2 5.2 332 8.9
2008-05-21 06:42:33 51°14.091 2°55.439 333.8 5.2 329 9
2008-05-21 06:42:38 51°14.097 2°55.433 331.5 5.2 327 -999
2008-05-21 06:42:43 51°14.103 2°55.426 330.2 5.2 328 -999
2008-05-21 06:42:48 51°14.109 2°55.42 330.3 5.3 327 -999
2008-05-21 06:42:53 51°14.116 2°55.414 331.1 5.6 330 9
2008-05-21 06:42:58 51°14.123 2°55.407 332.2 6 331 -999
2008-05-21 06:43:03 51°14.131 2°55.402 333.6 6.4 336 -999
2008-05-21 06:43:08 51°14.14 2°55.396 336.7 6.8 337 8.9
2008-05-21 06:43:13 51°14.149 2°55.39 338.1 7.3 339 8.9
2008-05-21 06:43:18 51°14.159 2°55.383 338.3 7.6 337 9
2008-05-21 06:43:23 51°14.169 2°55.376 337.4 8 336 9
2008-05-21 06:43:28 51°14.179 2°55.368 335.9 8.2 334 9
2008-05-21 06:43:33 51°14.19 2°55.36 334.2 8.5 333 -999
2008-05-21 06:43:38 51°14.2 2°55.35 332.1 8.7 331 9.1
2008-05-21 06:43:43 51°14.211 2°55.341 331.1 8.9 331 9.1
2008-05-21 06:43:48 51°14.222 2°55.33 330.2 9.2 328 -999
2008-05-21 06:43:53 51°14.233 2°55.319 326.9 9.4 326 -999
2008-05-21 06:43:58 51°14.243 2°55.306 323.6 9.6 322 -999
2008-05-21 06:44:03 51°14.254 2°55.292 321.5 9.8 322 -999
2008-05-21 06:44:08 51°14.265 2°55.278 321 10 320 9.3
2008-05-21 06:44:13 51°14.275 2°55.263 319.7 10.2 317 8.9
2008-05-21 06:44:18 51°14.285 2°55.246 317.7 10.3 313 9.2
2008-05-21 06:44:23 51°14.295 2°55.229 314.2 10.5 311 9.4
2008-05-21 06:44:28 51°14.303 2°55.21 310.7 10.6 306 9.7
2008-05-21 06:44:33 51°14.312 2°55.191 306.3 10.7 306 9.2
2008-05-21 06:44:38 51°14.32 2°55.171 305.1 11 304 -999
2008-05-21 06:44:43 51°14.328 2°55.149 302.6 11.2 301 -999
2008-05-21 06:44:48 51°14.337 2°55.128 300.8 11.4 302 9.8
2008-05-21 06:44:53 51°14.345 2°55.106 301.1 11.5 301 9.7
2008-05-21 06:44:58 51°14.352 2°55.084 300.2 11.7 299 9.3
2008-05-21 06:45:03 51°14.36 2°55.061 298.5 11.8 297 -999
2008-05-21 06:45:08 51°14.367 2°55.037 296.5 11.8 297 9.8
2008-05-21 06:45:13 51°14.375 2°55.013 295.8 11.9 296 -999
2008-05-21 06:45:18 51°14.382 2°54.99 295.5 11.9 298 9.2
2008-05-21 06:45:23 51°14.39 2°54.966 296.3 12 296 9
2008-05-21 06:45:28 51°14.397 2°54.942 296.5 12.1 296 8.8
2008-05-21 06:45:33 51°14.403 2°54.917 295.7 12.2 294 9.3
2008-05-21 06:45:38 51°14.411 2°54.892 294.6 12.3 295 9.6
2008-05-21 06:45:43 51°14.418 2°54.867 294.7 12.4 294 9.1
2008-05-21 06:45:48 51°14.425 2°54.842 295.1 12.5 295 9.2
2008-05-21 06:45:53 51°14.432 2°54.817 295.4 12.6 294 9.1
2008-05-21 06:45:58 51°14.439 2°54.791 295.9 12.6 293 9.1
2008-05-21 06:46:03 51°14.445 2°54.765 296.1 12.6 291 9.2
2008-05-21 06:46:08 51°14.45 2°54.738 293.9 12.8 285 9.2
2008-05-21 06:46:13 51°14.454 2°54.711 290 12.8 284 9.2
2008-05-21 06:46:18 51°14.458 2°54.683 287.3 12.9 282 9.2
2008-05-21 06:46:23 51°14.461 2°54.655 285.4 12.9 281 9.5
2008-05-21 06:46:28 51°14.463 2°54.626 283.7 13 277 9.5
2008-05-21 06:46:33 51°14.466 2°54.598 281.3 13 277 9.7
2008-05-21 06:46:38 51°14.467 2°54.569 279.5 13.1 275 9.7
2008-05-21 06:46:43 51°14.469 2°54.54 278.2 13.1 274 9
2008-05-21 06:46:48 51°14.469 2°54.511 276.1 13.2 270 9
2008-05-21 06:46:53 51°14.469 2°54.482 273.5 13.2 270 9.8
2008-05-21 06:46:58 51°14.467 2°54.452 271 13.2 266 9.1
2008-05-21 06:47:03 51°14.466 2°54.423 269.7 13.2 266 8.9
2008-05-21 06:47:08 51°14.463 2°54.394 266.6 13.3 261 9.1
2008-05-21 06:47:13 51°14.46 2°54.365 263.4 13.4 261 9.4
2008-05-21 06:47:18 51°14.456 2°54.336 261.6 13.4 258 9.5
2008-05-21 06:47:23 51°14.453 2°54.306 259.1 13.5 259 10.4
2008-05-21 06:47:28 51°14.448 2°54.278 258.3 13.4 257 9.2
2008-05-21 06:47:33 51°14.444 2°54.249 257.4 13.4 257 8.4
2008-05-21 06:47:38 51°14.44 2°54.221 256.5 13.2 256 8.3
2008-05-21 06:47:43 51°14.435 2°54.192 256.3 13.2 255 8.2
2008-05-21 06:47:48 51°14.43 2°54.164 255.5 13.3 256 8.1
2008-05-21 06:47:53 51°14.425 2°54.135 255.4 13.4 254 8.1
2008-05-21 06:47:58 51°14.421 2°54.107 255.3 13.4 256 8.2
2008-05-21 06:48:03 51°14.416 2°54.078 255.6 13.4 255 8.2
2008-05-21 06:48:08 51°14.411 2°54.05 255.3 13.5 256 8.2
2008-05-21 06:48:13 51°14.406 2°54.021 255.5 13.5 256 8.1
2008-05-21 06:48:18 51°14.402 2°53.992 256.1 13.5 254 8.2
2008-05-21 06:48:23 51°14.397 2°53.963 255.5 13.5 255 8.2
2008-05-21 06:48:28 51°14.391 2°53.934 255.4 13.5 254 8.2
2008-05-21 06:48:33 51°14.386 2°53.906 254.6 13.4 253 8.1
2008-05-21 06:48:38 51°14.379 2°53.878 254.4 13.6 249 8.2
2008-05-21 06:48:43 51°14.373 2°53.85 251.1 13.5 251 8.3
2008-05-21 06:48:48 51°14.365 2°53.823 250.2 13.6 246 8.4
2008-05-21 06:48:53 51°14.359 2°53.795 247.6 13.6 249 8.3
2008-05-21 06:48:58 51°14.35 2°53.768 247.2 13.6 244 8.3
2008-05-21 06:49:03 51°14.344 2°53.74 245.9 13.6 248 8.3
2008-05-21 06:49:08 51°14.335 2°53.713 245.7 13.6 245 8.3
2008-05-21 06:49:13 51°14.328 2°53.685 245.2 13.6 247 8.2
2008-05-21 06:49:18 51°14.32 2°53.658 245.8 13.5 246 8.3
2008-05-21 06:49:23 51°14.312 2°53.631 245.7 13.6 246 8.4
2008-05-21 06:49:28 51°14.305 2°53.603 245.6 13.6 245 8.4
2008-05-21 06:49:33 51°14.297 2°53.576 245.7 13.6 246 8.3
2008-05-21 06:49:38 51°14.288 2°53.55 244.6 13.5 241 8.3
2008-05-21 06:49:43 51°14.28 2°53.522 242.9 13.6 244 8.4
2008-05-21 06:49:48 51°14.271 2°53.496 242.4 13.6 242 8.3
2008-05-21 06:49:53 51°14.262 2°53.469 242.3 13.6 242 8.4
2008-05-21 06:49:58 51°14.253 2°53.443 241.6 13.6 242 8.3
2008-05-21 06:50:03 51°14.244 2°53.417 241.5 13.6 240 8.4
2008-05-21 06:50:08 51°14.235 2°53.39 240.9 13.6 244 8.5
2008-05-21 06:50:13 51°14.226 2°53.364 241.9 13.5 240 8.4
2008-05-21 06:50:18 51°14.217 2°53.337 241 13.6 241 8.6
2008-05-21 06:50:23 51°14.207 2°53.311 239.5 13.6 241 8.6
2008-05-21 06:50:28 51°14.198 2°53.286 240 13.6 239 8.6
2008-05-21 06:50:33 51°14.188 2°53.26 239.3 13.6 240 8.7
2008-05-21 06:50:38 51°14.178 2°53.234 239 13.6 239 8.8
2008-05-21 06:50:43 51°14.169 2°53.208 238.9 13.6 238 8.8
2008-05-21 06:50:48 51°14.159 2°53.182 238 13.6 239 8.8
2008-05-21 06:50:53 51°14.148 2°53.158 237.4 13.5 236 8.8
2008-05-21 06:50:58 51°14.138 2°53.132 235.8 13.7 237 8.9
2008-05-21 06:51:03 51°14.128 2°53.107 235.4 13.6 237 8.9
2008-05-21 06:51:08 51°14.117 2°53.082 235.8 13.5 235 8.9
2008-05-21 06:51:13 51°14.106 2°53.057 234.3 13.7 237 8.9
2008-05-21 06:51:18 51°14.097 2°53.031 235.3 13.6 238 9
2008-05-21 06:51:23 51°14.086 2°53.006 236.5 13.7 237 9
2008-05-21 06:51:28 51°14.077 2°52.98 236.1 13.6 239 9.1
2008-05-21 06:51:33 51°14.066 2°52.955 237.2 13.7 236 9.1
2008-05-21 06:51:38 51°14.057 2°52.929 235.8 13.7 241 9.1
2008-05-21 06:51:43 51°14.046 2°52.904 238.2 13.5 236 9.2
2008-05-21 06:51:48 51°14.037 2°52.878 237.5 13.7 240 9.1
2008-05-21 06:51:53 51°14.027 2°52.852 237.6 13.6 239 9.1
2008-05-21 06:51:58 51°14.017 2°52.826 238.4 13.7 239 9.1
2008-05-21 06:52:03 51°14.008 2°52.8 237.8 13.6 241 9.2
2008-05-21 06:52:08 51°13.997 2°52.775 239.3 13.7 236 9.1
2008-05-21 06:52:13 51°13.989 2°52.747 237.4 13.7 243 9.2
2008-05-21 06:52:18 51°13.979 2°52.722 239.6 13.7 237 9.2
2008-05-21 06:52:23 51°13.97 2°52.695 238.7 13.7 241 9.3
2008-05-21 06:52:28 51°13.96 2°52.669 238.9 13.7 239 9.3
2008-05-21 06:52:33 51°13.95 2°52.643 239.1 13.9 240 9.2
2008-05-21 06:52:38 51°13.941 2°52.616 238.5 13.6 241 9.2
2008-05-21 06:52:43 51°13.931 2°52.591 240.2 13.7 239 9.3
2008-05-21 06:52:48 51°13.922 2°52.564 239.2 13.8 242 9.3
2008-05-21 06:52:53 51°13.912 2°52.538 240.3 13.8 240 9.2
2008-05-21 06:52:58 51°13.903 2°52.511 240.1 13.7 240 9.3
2008-05-21 06:53:03 51°13.894 2°52.485 239.8 13.8 240 9.3
2008-05-21 06:53:08 51°13.885 2°52.458 240.5 13.8 242 9.3
2008-05-21 06:53:13 51°13.875 2°52.431 241.6 13.7 241 9.3
2008-05-21 06:53:18 51°13.865 2°52.405 241.2 13.9 239 9.2
2008-05-21 06:53:23 51°13.856 2°52.379 239.8 13.8 241 9.3
2008-05-21 06:53:28 51°13.845 2°52.353 239.8 13.8 236 9.3
2008-05-21 06:53:33 51°13.836 2°52.327 238 13.7 238 9.4
2008-05-21 06:53:38 51°13.825 2°52.302 237.1 13.8 236 9.3
2008-05-21 06:53:43 51°13.815 2°52.276 236.5 13.9 238 9.3
2008-05-21 06:53:48 51°13.804 2°52.251 236.6 13.8 235 9.3
2008-05-21 06:53:53 51°13.793 2°52.225 235.7 13.9 236 9.3
2008-05-21 06:53:58 51°13.782 2°52.2 235.1 14 236 9.3
2008-05-21 06:54:03 51°13.771 2°52.175 235.2 13.8 235 9.3
2008-05-21 06:54:08 51°13.76 2°52.15 234.1 14 234 9.3
2008-05-21 06:54:13 51°13.75 2°52.123 233.6 13.9 239 9.3
2008-05-21 06:54:18 51°13.738 2°52.099 236.2 13.8 234 9.3
2008-05-21 06:54:23 51°13.728 2°52.073 234.5 14 236 9.3
2008-05-21 06:54:28 51°13.717 2°52.047 234.6 14 237 9.3
2008-05-21 06:54:33 51°13.706 2°52.022 236 14 235 9.3
2008-05-21 06:54:38 51°13.696 2°51.996 235.1 13.8 237 9.3
2008-05-21 06:54:43 51°13.684 2°51.972 235.7 13.8 235 9.4
2008-05-21 06:54:48 51°13.674 2°51.946 234.7 14 236 9.4
2008-05-21 06:54:53 51°13.663 2°51.92 234.7 14 237 9.4
2008-05-21 06:54:58 51°13.652 2°51.895 235.9 13.9 235 9.4
2008-05-21 06:55:03 51°13.641 2°51.87 235.1 13.9 235 9.4
2008-05-21 06:55:08 51°13.631 2°51.844 234.5 13.9 237 9.4
2008-05-21 06:55:13 51°13.619 2°51.819 235.5 13.9 234 9.4
2008-05-21 06:55:18 51°13.608 2°51.794 234.5 13.9 235 9.4
2008-05-21 06:55:23 51°13.597 2°51.768 233.5 14 236 9.4
2008-05-21 06:55:28 51°13.586 2°51.743 234.7 14 235 9.4
2008-05-21 06:55:33 51°13.576 2°51.717 234.5 14 237 9.4
2008-05-21 06:55:38 51°13.565 2°51.692 235.3 14 235 9.4
2008-05-21 06:55:43 51°13.554 2°51.666 235.1 13.9 238 9.4
2008-05-21 06:55:48 51°13.543 2°51.641 235.6 13.9 234 9.4
2008-05-21 06:55:53 51°13.533 2°51.614 234.2 14 238 9.4
2008-05-21 06:55:58 51°13.522 2°51.591 235.1 13.1 235 9.4
2008-05-21 06:56:03 51°13.512 2°51.569 235.7 12.2 235 9.4
2008-05-21 06:56:08 51°13.503 2°51.548 233.1 11.6 233 9.5
2008-05-21 06:56:13 51°13.493 2°51.529 232 10.7 232 9.5
2008-05-21 06:56:18 51°13.485 2°51.512 230.9 9.9 231 9.6
2008-05-21 06:56:23 51°13.476 2°51.498 228.5 9.1 228 9.7
2008-05-21 06:56:28 51°13.468 2°51.485 226.4 8.1 226 9.7
2008-05-21 06:56:33 51°13.461 2°51.474 222.1 7.2 222 9.7
2008-05-21 06:56:38 51°13.454 2°51.466 217.3 6.1 220 9.7
2008-05-21 06:56:43 51°13.448 2°51.459 213.3 5.2 215 9.7
2008-05-21 06:56:48 51°13.443 2°51.454 207.5 4.5 216 9.7
2008-05-21 06:56:53 51°13.439 2°51.45 202.5 3.6 213 9.7
2008-05-21 06:56:58 51°13.436 2°51.446 195.9 2.9 218 9.7
2008-05-21 06:57:03 51°13.434 2°51.442 190 2.1 226 9.7
2008-05-21 06:57:08 51°13.433 2°51.439 183.6 1.7 246 9.7
2008-05-21 06:57:13 51°13.433 2°51.435 179.5 1.7 262 9.7
2008-05-21 06:57:18 51°13.433 2°51.432 175.6 1.6 268 9.7
2008-05-21 06:57:23 51°13.432 2°51.428 174.6 1.7 266 9.7
2008-05-21 06:57:28 51°13.432 2°51.424 175 1.6 267 9.8
2008-05-21 06:57:33 51°13.432 2°51.421 176 1.5 265 9.8
2008-05-21 06:57:38 51°13.432 2°51.418 177.8 1.4 265 -999
2008-05-21 06:57:43 51°13.432 2°51.415 179.9 1.4 264 -999
2008-05-21 06:57:48 51°13.431 2°51.412 181.3 1.5 264 -999
2008-05-21 06:57:53 51°13.431 2°51.409 182.1 1.3 263 -999
2008-05-21 06:57:58 51°13.431 2°51.406 182.8 1.4 262 -999
2008-05-21 06:58:03 51°13.431 2°51.402 183.1 1.5 261 -999
2008-05-21 06:58:08 51°13.43 2°51.399 183.7 1.4 257 -999
2008-05-21 06:58:13 51°13.43 2°51.396 184.5 1.5 258 -999
2008-05-21 06:58:18 51°13.43 2°51.392 185.4 1.5 258 -999
2008-05-21 06:58:23 51°13.429 2°51.389 186.2 1.6 257 -999
2008-05-21 06:58:28 51°13.429 2°51.385 187.5 1.5 259 -999
2008-05-21 06:58:33 51°13.429 2°51.382 188.7 1.5 258 -999
2008-05-21 06:58:38 51°13.428 2°51.378 189.7 1.6 259 -999
2008-05-21 06:58:43 51°13.428 2°51.375 190.7 1.6 256 9.8
2008-05-21 06:58:48 51°13.427 2°51.371 191.7 1.7 258 -999
2008-05-21 06:58:53 51°13.426 2°51.368 192.6 1.5 252 -999
2008-05-21 06:58:58 51°13.426 2°51.365 193.4 1.6 256 9.8
2008-05-21 06:59:03 51°13.425 2°51.362 194.1 1.6 253 9.8
2008-05-21 06:59:08 51°13.425 2°51.358 194.8 1.7 254 9.8
2008-05-21 06:59:13 51°13.424 2°51.354 195.3 1.6 254 9.8
2008-05-21 06:59:18 51°13.423 2°51.351 195.8 1.6 256 9.8
2008-05-21 06:59:23 51°13.423 2°51.348 196.3 1.5 253 9.9
2008-05-21 06:59:28 51°13.422 2°51.344 196.9 1.7 252 9.9
2008-05-21 06:59:33 51°13.421 2°51.341 197.6 1.6 252 9.9
2008-05-21 06:59:38 51°13.421 2°51.337 198.1 1.6 252 9.8
2008-05-21 06:59:43 51°13.42 2°51.334 198.6 1.6 251 9.8
2008-05-21 06:59:48 51°13.419 2°51.33 199 1.6 251 9.8
2008-05-21 06:59:53 51°13.419 2°51.326 199.5 1.7 251 9.9
2008-05-21 06:59:58 51°13.418 2°51.323 200 1.6 250 9.9
2008-05-21 07:00:03 51°13.417 2°51.319 200.3 1.7 251 9.8
2008-05-21 07:00:08 51°13.416 2°51.316 200.7 1.7 251 9.8
2008-05-21 07:00:13 51°13.416 2°51.313 200.9 1.7 250 9.8
2008-05-21 07:00:18 51°13.415 2°51.309 201.1 1.7 251 9.8
2008-05-21 07:00:23 51°13.414 2°51.306 201.7 1.6 250 9.8
2008-05-21 07:00:28 51°13.413 2°51.302 201.9 1.7 250 9.9
2008-05-21 07:00:33 51°13.413 2°51.299 202.3 1.6 248 9.9
2008-05-21 07:00:38 51°13.412 2°51.295 202.8 1.8 252 9.9
2008-05-21 07:00:43 51°13.411 2°51.292 203.1 1.6 248 9.8
2008-05-21 07:00:48 51°13.41 2°51.288 203.3 1.7 249 9.9
2008-05-21 07:00:53 51°13.409 2°51.285 203.8 1.6 249 9.8
2008-05-21 07:00:58 51°13.408 2°51.282 204.1 1.6 249 9.8
2008-05-21 07:01:03 51°13.407 2°51.278 204.2 1.6 249 9.9
2008-05-21 07:01:08 51°13.407 2°51.275 204.6 1.7 247 9.8
2008-05-21 07:01:13 51°13.406 2°51.271 204.9 1.7 247 9.9
2008-05-21 07:01:18 51°13.405 2°51.268 205.1 1.7 246 9.8
2008-05-21 07:01:23 51°13.404 2°51.265 205.3 1.6 247 9.9
2008-05-21 07:01:28 51°13.403 2°51.261 205.6 1.7 247 9.9
2008-05-21 07:01:33 51°13.402 2°51.258 206 1.7 249 9.9
2008-05-21 07:01:38 51°13.401 2°51.254 206.2 1.7 247 9.9
2008-05-21 07:01:43 51°13.4 2°51.25 206.5 1.8 245 9.9
2008-05-21 07:01:48 51°13.399 2°51.247 206.9 2 242 9.9
2008-05-21 07:01:53 51°13.397 2°51.242 207.6 2.2 239 9.9
2008-05-21 07:01:59 51°13.395 2°51.237 209.5 2.5 235 9.9
2008-05-21 07:02:03 51°13.393 2°51.233 212 2.8 234 9.9
2008-05-21 07:02:08 51°13.39 2°51.227 215.6 3.2 232 9.9
2008-05-21 07:02:13 51°13.388 2°51.221 219.7 3.5 235 9.9
2008-05-21 07:02:18 51°13.385 2°51.214 223.8 3.7 235 9.8
2008-05-21 07:02:23 51°13.381 2°51.207 226.6 3.9 234 9.8
2008-05-21 07:02:28 51°13.378 2°51.199 230.7 4.2 239 9.9
2008-05-21 07:02:33 51°13.375 2°51.19 234.7 4.5 240 9.9
2008-05-21 07:02:38 51°13.371 2°51.181 238.7 5.1 241 9.8
2008-05-21 07:02:43 51°13.367 2°51.169 241 6 240 9.8
2008-05-21 07:02:48 51°13.362 2°51.155 241.6 7.2 238 9.8
2008-05-21 07:02:53 51°13.357 2°51.139 241 8.3 242 9.8
2008-05-21 07:02:58 51°13.35 2°51.122 240.7 9.3 238 9.8
2008-05-21 07:03:03 51°13.343 2°51.102 239.4 10.2 240 9.7
2008-05-21 07:03:08 51°13.335 2°51.082 238.9 10.9 237 9.7
2008-05-21 07:03:13 51°13.327 2°51.06 238 11.6 240 9.8
2008-05-21 07:03:18 51°13.317 2°51.038 238.3 12 237 9.8
2008-05-21 07:03:23 51°13.309 2°51.014 237.6 12.4 238 9.7
2008-05-21 07:03:28 51°13.3 2°50.99 237.6 12.7 240 9.7
2008-05-21 07:03:33 51°13.29 2°50.966 238.7 12.9 238 9.7
2008-05-21 07:03:39 51°13.279 2°50.936 239 13.1 239 9.7
2008-05-21 07:03:43 51°13.271 2°50.917 238.5 13.3 236 9.8
2008-05-21 07:03:48 51°13.261 2°50.891 237.4 13.4 241 9.7
2008-05-21 07:03:53 51°13.25 2°50.867 238.1 13.5 234 9.8
2008-05-21 07:03:58 51°13.241 2°50.841 236.3 13.5 240 9.7
2008-05-21 07:04:03 51°13.23 2°50.816 237 13.6 235 9.7
2008-05-21 07:04:08 51°13.221 2°50.79 236.7 13.5 240 9.7
2008-05-21 07:04:13 51°13.211 2°50.765 237.6 13.6 238 9.8
2008-05-21 07:04:18 51°13.202 2°50.738 239.2 13.7 242 9.8
2008-05-21 07:04:23 51°13.194 2°50.711 241.1 13.6 241 9.8
2008-05-21 07:04:28 51°13.184 2°50.685 242.5 13.7 244 9.8
2008-05-21 07:04:33 51°13.176 2°50.657 242.8 13.7 242 9.8
2008-05-21 07:04:38 51°13.167 2°50.63 243.8 13.7 244 9.8
2008-05-21 07:04:43 51°13.159 2°50.603 243.8 13.8 242 9.9
2008-05-21 07:04:48 51°13.15 2°50.576 244.5 13.9 245 9.8
2008-05-21 07:04:53 51°13.142 2°50.548 244.5 13.8 243 9.8
2008-05-21 07:04:58 51°13.134 2°50.521 245.2 13.7 244 9.9
2008-05-21 07:05:03 51°13.125 2°50.494 244.9 13.8 243 9.9
2008-05-21 07:05:08 51°13.117 2°50.466 244.5 13.8 244 9.9
2008-05-21 07:05:13 51°13.107 2°50.44 244.2 13.8 240 9.9
2008-05-21 07:05:18 51°13.099 2°50.412 242.8 13.8 245 9.9
2008-05-21 07:05:23 51°13.09 2°50.386 243.8 13.7 241 10
2008-05-21 07:05:28 51°13.081 2°50.359 243 13.9 243 9.9
2008-05-21 07:05:33 51°13.072 2°50.331 242.7 13.9 243 9.9
2008-05-21 07:05:38 51°13.063 2°50.305 243.6 13.9 241 9.9
2008-05-21 07:05:43 51°13.054 2°50.277 242.3 13.9 243 9.9
2008-05-21 07:05:48 51°13.045 2°50.251 243 13.9 241 9.9
2008-05-21 07:05:53 51°13.036 2°50.223 242.4 13.9 243 9.9
2008-05-21 07:05:58 51°13.027 2°50.196 242.8 13.9 241 9.9
2008-05-21 07:06:03 51°13.018 2°50.169 242.7 13.9 242 9.9
2008-05-21 07:06:08 51°13.01 2°50.142 242.7 13.8 243 10
2008-05-21 07:06:13 51°13 2°50.115 243.4 13.9 241 10.1
2008-05-21 07:06:19 51°12.99 2°50.082 242.3 13.9 245 10
2008-05-21 07:06:23 51°12.982 2°50.061 243.8 13.8 240 10
2008-05-21 07:06:28 51°12.974 2°50.034 242.5 13.9 243 9.9
2008-05-21 07:06:33 51°12.965 2°50.006 242.1 13.8 243 10
2008-05-21 07:06:38 51°12.956 2°49.979 243.1 13.9 242 10
2008-05-21 07:06:43 51°12.947 2°49.952 242.6 14 243 10
2008-05-21 07:06:48 51°12.938 2°49.925 243 13.9 242 10.1
2008-05-21 07:06:53 51°12.929 2°49.897 242.5 13.9 243 10.1
2008-05-21 07:06:58 51°12.92 2°49.87 242.6 13.9 242 10.1
2008-05-21 07:07:03 51°12.911 2°49.843 243.3 14 242 10.2
2008-05-21 07:07:08 51°12.902 2°49.815 243 14 244 10.1
2008-05-21 07:07:13 51°12.893 2°49.788 243.6 13.9 241 10.2
2008-05-21 07:07:18 51°12.885 2°49.76 243 13.9 245 10.2
2008-05-21 07:07:23 51°12.877 2°49.733 244.4 13.9 243 10.2
2008-05-21 07:07:28 51°12.868 2°49.705 245.2 13.9 245 10.2
2008-05-21 07:07:33 51°12.861 2°49.677 245.2 13.8 246 10.2
2008-05-21 07:07:38 51°12.851 2°49.65 246.3 13.9 242 10.1
2008-05-21 07:07:43 51°12.844 2°49.622 245.2 13.8 247 10.2
2008-05-21 07:07:48 51°12.834 2°49.595 246 13.9 241 10.2
2008-05-21 07:07:53 51°12.827 2°49.567 244.9 13.8 246 10.3
2008-05-21 07:07:58 51°12.818 2°49.54 245.6 13.8 242 10.2
2008-05-21 07:08:03 51°12.809 2°49.513 244.1 13.8 243 10.2
2008-05-21 07:08:08 51°12.8 2°49.486 243.1 13.9 242 10.3
2008-05-21 07:08:13 51°12.791 2°49.459 243 13.8 243 10.2
2008-05-21 07:08:18 51°12.783 2°49.432 243.2 13.7 243 10.4
2008-05-21 07:08:23 51°12.774 2°49.405 243.5 14 242 10.4
2008-05-21 07:08:28 51°12.766 2°49.376 243.5 13.9 246 10.4
2008-05-21 07:08:33 51°12.757 2°49.35 245.9 13.9 241 10.4
2008-05-21 07:08:39 51°12.748 2°49.316 244 13.9 247 10.3
2008-05-21 07:08:43 51°12.741 2°49.294 245.7 13.8 244 10.4
2008-05-21 07:08:48 51°12.732 2°49.266 245.9 13.9 244 10.4
2008-05-21 07:08:53 51°12.725 2°49.238 245 13.9 246 10.5
2008-05-21 07:08:58 51°12.716 2°49.211 246.4 13.9 243 10.5
2008-05-21 07:09:03 51°12.708 2°49.183 244.9 13.9 246 10.5
2008-05-21 07:09:08 51°12.699 2°49.155 245.8 13.9 244 10.4
2008-05-21 07:09:13 51°12.692 2°49.127 245.6 13.9 246 10.5
2008-05-21 07:09:18 51°12.683 2°49.1 245.9 13.9 244 10.5
2008-05-21 07:09:23 51°12.674 2°49.072 245.5 13.9 244 10.5
2008-05-21 07:09:28 51°12.666 2°49.045 245.2 13.9 243 10.6
2008-05-21 07:09:33 51°12.657 2°49.017 244.7 13.8 245 10.6
2008-05-21 07:09:38 51°12.648 2°48.991 244.3 13.9 240 10.6
2008-05-21 07:09:43 51°12.639 2°48.963 242.4 13.9 243 10.7
2008-05-21 07:09:48 51°12.629 2°48.937 242.3 13.8 239 10.7
2008-05-21 07:09:53 51°12.621 2°48.91 241.2 13.8 242 10.7
2008-05-21 07:09:58 51°12.611 2°48.883 240.7 13.9 240 10.6
2008-05-21 07:10:03 51°12.602 2°48.856 240.6 13.9 242 10.6
2008-05-21 07:10:08 51°12.592 2°48.83 240.8 13.9 240 10.7
2008-05-21 07:10:13 51°12.584 2°48.802 240.9 13.8 244 10.7
2008-05-21 07:10:19 51°12.572 2°48.77 242.6 13.9 241 10.6
2008-05-21 07:10:23 51°12.566 2°48.748 242.5 13.9 243 10.7
2008-05-21 07:10:28 51°12.557 2°48.721 243.4 13.8 244 10.7
2008-05-21 07:10:33 51°12.548 2°48.694 244.2 14 241 10.8
2008-05-21 07:10:38 51°12.54 2°48.665 243.4 13.9 246 10.7
2008-05-21 07:10:43 51°12.531 2°48.639 244.8 13.9 240 10.8
2008-05-21 07:10:48 51°12.522 2°48.611 243.1 13.9 244 10.8
2008-05-21 07:10:53 51°12.513 2°48.585 243 13.8 240 10.8
2008-05-21 07:10:59 51°12.502 2°48.553 242.2 13.8 241 10.9
2008-05-21 07:11:03 51°12.494 2°48.531 241.2 13.9 241 10.8
2008-05-21 07:11:08 51°12.485 2°48.504 241.3 13.8 241 10.8
2008-05-21 07:11:13 51°12.475 2°48.478 241.1 13.8 241 10.8
2008-05-21 07:11:18 51°12.466 2°48.451 240.5 13.9 241 10.9
2008-05-21 07:11:23 51°12.456 2°48.425 240.5 13.9 240 10.8
2008-05-21 07:11:28 51°12.447 2°48.398 239.7 13.9 240 10.8
2008-05-21 07:11:33 51°12.437 2°48.371 240.2 13.9 241 10.9
2008-05-21 07:11:38 51°12.427 2°48.345 240.7 13.8 239 10.8
2008-05-21 07:11:43 51°12.418 2°48.318 239.9 13.8 241 10.8
2008-05-21 07:11:48 51°12.408 2°48.292 240.2 13.9 240 10.8
2008-05-21 07:11:53 51°12.399 2°48.265 239.9 13.8 241 10.9
2008-05-21 07:11:58 51°12.389 2°48.239 240.3 13.9 240 10.8
2008-05-21 07:12:03 51°12.381 2°48.212 240.4 13.8 242 10.8
2008-05-21 07:12:08 51°12.371 2°48.186 241.2 13.8 240 10.9
2008-05-21 07:12:13 51°12.362 2°48.158 240.5 13.9 243 10.9
2008-05-21 07:12:18 51°12.353 2°48.132 242.2 13.8 241 10.9
2008-05-21 07:12:23 51°12.345 2°48.104 242.4 13.8 244 10.9
2008-05-21 07:12:28 51°12.336 2°48.077 243.1 13.9 244 10.8
2008-05-21 07:12:33 51°12.328 2°48.049 244.3 13.7 244 10.9
2008-05-21 07:12:38 51°12.319 2°48.022 244.2 13.9 242 10.9
2008-05-21 07:12:43 51°12.31 2°47.995 243.1 13.8 243 11
2008-05-21 07:12:48 51°12.3 2°47.969 242.7 13.8 241 11
2008-05-21 07:12:53 51°12.291 2°47.942 241.6 13.8 242 11
2008-05-21 07:12:59 51°12.281 2°47.909 241.6 13.9 242 11
2008-05-21 07:13:03 51°12.274 2°47.887 242.1 13.8 244 11
2008-05-21 07:13:08 51°12.265 2°47.861 243.1 13.8 243 10.9
2008-05-21 07:13:13 51°12.257 2°47.833 242.8 13.9 244 11
2008-05-21 07:13:18 51°12.248 2°47.806 243.1 13.8 244 10.9
2008-05-21 07:13:23 51°12.24 2°47.778 244.1 13.8 244 11
2008-05-21 07:13:28 51°12.232 2°47.75 244.5 13.8 245 11
2008-05-21 07:13:33 51°12.223 2°47.723 245 13.8 243 11.1
2008-05-21 07:13:38 51°12.215 2°47.695 244.3 13.9 245 11
2008-05-21 07:13:43 51°12.207 2°47.668 244.1 13.8 244 11.1
2008-05-21 07:13:48 51°12.198 2°47.641 244.5 13.8 243 11.1
2008-05-21 07:13:53 51°12.19 2°47.613 244.1 13.8 245 11.1
2008-05-21 07:13:58 51°12.181 2°47.586 244.4 13.8 243 11.1
2008-05-21 07:14:03 51°12.173 2°47.558 243.9 13.9 244 11.1
2008-05-21 07:14:08 51°12.165 2°47.531 243.5 13.8 245 11.1
2008-05-21 07:14:13 51°12.156 2°47.504 244.4 13.7 242 11.2
2008-05-21 07:14:18 51°12.147 2°47.476 243.5 13.9 244 11.2
2008-05-21 07:14:23 51°12.139 2°47.449 243.3 13.8 244 11.1
2008-05-21 07:14:28 51°12.13 2°47.421 243.9 13.8 244 11.1
2008-05-21 07:14:33 51°12.124 2°47.393 243.3 13.6 249 11.1
2008-05-21 07:14:38 51°12.116 2°47.365 247.2 13.8 248 11.1
2008-05-21 07:14:43 51°12.11 2°47.337 248.5 13.7 250 11.1
2008-05-21 07:14:48 51°12.103 2°47.309 249.6 13.7 249 11.2
2008-05-21 07:14:53 51°12.096 2°47.28 249.9 13.8 251 11.2
2008-05-21 07:14:58 51°12.09 2°47.251 251 13.7 250 11.1
2008-05-21 07:15:03 51°12.083 2°47.223 250.8 13.7 250 11.2
2008-05-21 07:15:08 51°12.077 2°47.194 250.6 13.8 251 11.2
2008-05-21 07:15:13 51°12.071 2°47.166 251.5 13.7 251 11.2
2008-05-21 07:15:19 51°12.063 2°47.131 251.5 13.7 251 11.1
2008-05-21 07:15:23 51°12.059 2°47.108 251.3 13.7 251 11.2
2008-05-21 07:15:28 51°12.052 2°47.079 251.9 13.8 251 11.3
2008-05-21 07:15:33 51°12.046 2°47.051 252.1 13.7 252 11.3
2008-05-21 07:15:38 51°12.04 2°47.022 252.3 13.8 251 11.3
2008-05-21 07:15:43 51°12.034 2°46.993 252 13.8 252 11.2
2008-05-21 07:15:48 51°12.028 2°46.964 252.5 13.8 250 11.3
2008-05-21 07:15:53 51°12.022 2°46.935 252.2 13.7 254 11.2
2008-05-21 07:15:58 51°12.015 2°46.907 252.6 13.9 248 11.2
2008-05-21 07:16:03 51°12.01 2°46.877 251.6 13.7 255 11.3
2008-05-21 07:16:08 51°12.003 2°46.849 253.2 13.8 248 11.3
2008-05-21 07:16:13 51°11.999 2°46.819 252.2 13.8 256 11.4
2008-05-21 07:16:18 51°11.991 2°46.791 253.3 13.8 249 11.4
2008-05-21 07:16:23 51°11.986 2°46.761 252.3 13.8 254 11.4
2008-05-21 07:16:28 51°11.98 2°46.733 253.3 13.8 251 11.4
2008-05-21 07:16:33 51°11.974 2°46.704 252.6 13.8 252 11.3
2008-05-21 07:16:38 51°11.968 2°46.675 252.3 13.9 252 11.4
2008-05-21 07:16:43 51°11.963 2°46.646 252.4 13.8 253 11.4
2008-05-21 07:16:48 51°11.956 2°46.617 253.2 13.8 251 11.4
2008-05-21 07:16:53 51°11.95 2°46.588 252.5 13.8 253 11.5
2008-05-21 07:16:58 51°11.944 2°46.56 252.4 13.8 252 11.4
2008-05-21 07:17:03 51°11.938 2°46.53 252.6 13.9 252 11.4
2008-05-21 07:17:08 51°11.933 2°46.501 252.9 13.8 253 11.4
2008-05-21 07:17:13 51°11.927 2°46.472 253.4 13.9 254 11.5
2008-05-21 07:17:18 51°11.922 2°46.442 254.2 13.9 255 11.4
2008-05-21 07:17:23 51°11.916 2°46.413 255.4 13.9 254 11.3
2008-05-21 07:17:28 51°11.912 2°46.383 254.8 13.9 256 11.4
2008-05-21 07:17:33 51°11.907 2°46.353 256 13.9 254 11.5
2008-05-21 07:17:39 51°11.901 2°46.318 256.1 13.9 256 11.5
2008-05-21 07:17:43 51°11.897 2°46.294 255.8 13.9 255 11.4
2008-05-21 07:17:48 51°11.892 2°46.264 255.9 14 255 11.5
2008-05-21 07:17:53 51°11.887 2°46.234 255.5 14 256 11.4
2008-05-21 07:17:58 51°11.883 2°46.204 256.1 13.9 257 11.4
2008-05-21 07:18:03 51°11.878 2°46.174 257.3 14 257 11.5
2008-05-21 07:18:08 51°11.874 2°46.144 258.2 14 258 11.6
2008-05-21 07:18:13 51°11.87 2°46.113 258.6 14.1 258 11.5
2008-05-21 07:18:18 51°11.865 2°46.083 258.4 14.1 258 11.4
2008-05-21 07:18:23 51°11.862 2°46.053 258.6 14 259 11.4
2008-05-21 07:18:28 51°11.857 2°46.023 259.6 14.1 256 11.5
2008-05-21 07:18:33 51°11.853 2°45.992 258.8 14 259 11.5
2008-05-21 07:18:38 51°11.849 2°45.962 258.4 14 257 11.4
2008-05-21 07:18:43 51°11.844 2°45.932 258.4 14 257 11.5
2008-05-21 07:18:48 51°11.839 2°45.902 257.3 14.1 254 11.4
2008-05-21 07:18:53 51°11.835 2°45.872 255.7 14 258 11.5
2008-05-21 07:18:58 51°11.829 2°45.842 256.1 14 254 11.4
2008-05-21 07:19:03 51°11.825 2°45.812 255.7 13.9 257 11.5
2008-05-21 07:19:08 51°11.82 2°45.782 256.8 14 255 11.5
2008-05-21 07:19:13 51°11.816 2°45.752 256.8 14 257 11.5
2008-05-21 07:19:18 51°11.81 2°45.722 256.9 14 253 11.5
2008-05-21 07:19:23 51°11.805 2°45.692 255.9 13.9 256 11.5
2008-05-21 07:19:28 51°11.799 2°45.663 255.4 14 253 11.5
2008-05-21 07:19:33 51°11.795 2°45.633 254.1 14 255 11.6
2008-05-21 07:19:39 51°11.789 2°45.597 255.2 13.9 255 11.5
2008-05-21 07:19:43 51°11.784 2°45.573 255.5 14.1 254 11.5
2008-05-21 07:19:48 51°11.78 2°45.544 255.4 14 258 11.5
2008-05-21 07:19:53 51°11.775 2°45.514 256.5 14 254 11.4
2008-05-21 07:19:58 51°11.77 2°45.484 255.9 14 258 11.4
2008-05-21 07:20:03 51°11.765 2°45.454 256.6 14.1 254 11.4
2008-05-21 07:20:08 51°11.76 2°45.424 255.4 13.9 256 11.4
2008-05-21 07:20:13 51°11.755 2°45.394 255.4 14 253 11.6
2008-05-21 07:20:19 51°11.749 2°45.359 254.6 14.1 255 11.3
2008-05-21 07:20:23 51°11.744 2°45.335 254.3 14 253 11.4
2008-05-21 07:20:28 51°11.739 2°45.305 253.7 14 255 11.5
2008-05-21 07:20:33 51°11.734 2°45.275 254 14 256 11.4
2008-05-21 07:20:38 51°11.73 2°45.245 255.2 14 256 11.4
2008-05-21 07:20:43 51°11.725 2°45.215 256 14 256 11.3
2008-05-21 07:20:48 51°11.721 2°45.185 256.4 14 258 11.4
2008-05-21 07:20:53 51°11.716 2°45.155 257.5 14 256 11.4
2008-05-21 07:20:58 51°11.712 2°45.124 256.8 14 259 11.4
2008-05-21 07:21:03 51°11.707 2°45.095 257.6 13.9 256 11.2
2008-05-21 07:21:08 51°11.703 2°45.064 257.3 14 258 11.3
2008-05-21 07:21:13 51°11.699 2°45.034 257.2 14.1 257 11.4
2008-05-21 07:21:18 51°11.694 2°45.004 257.5 14 258 11.2
2008-05-21 07:21:23 51°11.69 2°44.974 257.8 14 256 11.4
2008-05-21 07:21:28 51°11.686 2°44.944 257.1 13.9 257 11.2
2008-05-21 07:21:33 51°11.681 2°44.914 257.1 14 255 11.4
2008-05-21 07:21:38 51°11.677 2°44.884 256.2 14 258 11.4
2008-05-21 07:21:43 51°11.672 2°44.854 257.1 13.9 256 11.2
2008-05-21 07:21:48 51°11.668 2°44.824 256.6 13.9 257 11.2
2008-05-21 07:21:53 51°11.663 2°44.794 256.8 13.9 256 11.2
2008-05-21 07:21:59 51°11.658 2°44.759 256.9 13.8 256 11.2
2008-05-21 07:22:03 51°11.654 2°44.735 256.6 13.9 257 11.3
2008-05-21 07:22:08 51°11.65 2°44.705 256.1 13.9 257 11.2
2008-05-21 07:22:13 51°11.644 2°44.675 256.2 13.9 254 11.3
2008-05-21 07:22:19 51°11.639 2°44.639 254.8 13.9 256 11.1
2008-05-21 07:22:23 51°11.635 2°44.616 255 13.8 255 11.1
2008-05-21 07:22:28 51°11.63 2°44.586 255.1 13.9 256 11
2008-05-21 07:22:33 51°11.626 2°44.556 255.4 13.8 257 11.2
2008-05-21 07:22:38 51°11.621 2°44.527 256.5 13.8 256 11.2
2008-05-21 07:22:43 51°11.617 2°44.497 256.1 13.8 257 11.1
2008-05-21 07:22:48 51°11.613 2°44.467 256.3 13.8 258 11.1
2008-05-21 07:22:53 51°11.609 2°44.438 257 13.7 256 11.1
2008-05-21 07:22:58 51°11.605 2°44.408 256.5 13.7 258 11.1
2008-05-21 07:23:03 51°11.601 2°44.379 256.8 13.8 258 11
2008-05-21 07:23:08 51°11.597 2°44.349 258.3 13.7 259 10.9
2008-05-21 07:23:13 51°11.593 2°44.319 259 13.8 258 11.1
2008-05-21 07:23:18 51°11.59 2°44.289 259.1 13.7 259 11.1
2008-05-21 07:23:23 51°11.587 2°44.259 259.2 13.6 260 11.2
2008-05-21 07:23:28 51°11.583 2°44.23 259.7 13.7 259 11
2008-05-21 07:23:33 51°11.58 2°44.2 259.7 13.7 261 11
2008-05-21 07:23:38 51°11.577 2°44.17 260.7 13.6 260 11
2008-05-21 07:23:43 51°11.573 2°44.141 260.4 13.5 259 11
2008-05-21 07:23:48 51°11.569 2°44.112 258.7 13.5 257 10.9
2008-05-21 07:23:53 51°11.566 2°44.082 257.7 13.6 259 10.9
2008-05-21 07:23:58 51°11.561 2°44.053 258 13.6 256 10.9
2008-05-21 07:24:03 51°11.557 2°44.024 256.7 13.5 258 10.9
2008-05-21 07:24:08 51°11.553 2°43.995 257.2 13.5 257 10.9
2008-05-21 07:24:13 51°11.549 2°43.966 257.4 13.4 257 11
2008-05-21 07:24:18 51°11.545 2°43.937 257 13.6 257 11
2008-05-21 07:24:23 51°11.541 2°43.908 256.6 13.6 258 10.9
2008-05-21 07:24:28 51°11.536 2°43.879 257.1 13.4 256 10.7
2008-05-21 07:24:33 51°11.532 2°43.85 256.1 13.4 257 10.8
2008-05-21 07:24:39 51°11.528 2°43.815 256.9 13.5 258 10.8
2008-05-21 07:24:43 51°11.524 2°43.792 257.5 13.4 256 10.7
2008-05-21 07:24:48 51°11.52 2°43.763 256.7 13.4 258 10.8
2008-05-21 07:24:53 51°11.516 2°43.734 257.1 13.5 256 10.9
2008-05-21 07:24:58 51°11.512 2°43.705 257 13.4 259 10.8
2008-05-21 07:25:03 51°11.508 2°43.677 257.3 13.3 256 10.8
2008-05-21 07:25:08 51°11.504 2°43.647 256.3 13.5 258 10.8
2008-05-21 07:25:13 51°11.5 2°43.618 256.6 13.6 257 10.7
2008-05-21 07:25:18 51°11.495 2°43.589 257.2 13.4 256 10.7
2008-05-21 07:25:23 51°11.491 2°43.561 256.3 13.3 257 10.6
2008-05-21 07:25:28 51°11.487 2°43.532 256.6 13.3 256 10.6
2008-05-21 07:25:33 51°11.484 2°43.503 256.7 13.6 259 10.6
2008-05-21 07:25:38 51°11.48 2°43.473 257.6 13.6 257 10.5
2008-05-21 07:25:43 51°11.476 2°43.444 257.5 13.4 258 10.5
2008-05-21 07:25:48 51°11.472 2°43.416 257.6 13.3 257 10.7
2008-05-21 07:25:53 51°11.468 2°43.387 257 13.4 257 10.4
2008-05-21 07:25:58 51°11.464 2°43.358 256.8 13.5 258 10.4
2008-05-21 07:26:03 51°11.459 2°43.328 257.3 13.6 255 10.5
2008-05-21 07:26:08 51°11.456 2°43.299 256.2 13.4 259 10.4
2008-05-21 07:26:13 51°11.451 2°43.27 257.5 13.4 256 10.5
2008-05-21 07:26:19 51°11.447 2°43.236 257.1 13.3 260 10.4
2008-05-21 07:26:23 51°11.443 2°43.213 257.4 13.4 255 10.3
2008-05-21 07:26:28 51°11.44 2°43.184 256.4 13.3 260 10.2
2008-05-21 07:26:33 51°11.435 2°43.156 257.8 13.5 254 10.3
2008-05-21 07:26:38 51°11.431 2°43.126 256.3 13.4 260 10.1
2008-05-21 07:26:43 51°11.427 2°43.098 257.7 13.3 256 10.2
2008-05-21 07:26:48 51°11.423 2°43.069 257.7 13.3 258 10.2
2008-05-21 07:26:53 51°11.419 2°43.041 257.8 13.3 257 10.1
2008-05-21 07:26:58 51°11.415 2°43.012 257.6 13.2 256 10.1
2008-05-21 07:27:03 51°11.41 2°42.984 255.8 13.3 255 10.2
2008-05-21 07:27:08 51°11.405 2°42.955 254.9 13.5 254 10.2
2008-05-21 07:27:13 51°11.4 2°42.927 253.8 13.5 253 10.1
2008-05-21 07:27:18 51°11.393 2°42.899 252 13.5 251 10.1
2008-05-21 07:27:23 51°11.387 2°42.871 250.6 13.3 250 10.1
2008-05-21 07:27:28 51°11.379 2°42.844 248.6 13.4 246 10.2
2008-05-21 07:27:33 51°11.373 2°42.816 245.9 13.5 250 10.1
2008-05-21 07:27:38 51°11.364 2°42.789 246 13.6 243 10.1
2008-05-21 07:27:43 51°11.357 2°42.761 244.1 13.6 247 10.2
2008-05-21 07:27:48 51°11.348 2°42.735 243.5 13.5 242 10.1
2008-05-21 07:27:53 51°11.34 2°42.709 241.6 13.5 242 10.1
2008-05-21 07:27:58 51°11.331 2°42.683 239.7 13.5 242 10.2
2008-05-21 07:28:03 51°11.32 2°42.658 239.1 13.5 237 10.2
2008-05-21 07:28:08 51°11.311 2°42.632 236.5 13.4 240 10.2
2008-05-21 07:28:13 51°11.3 2°42.608 235.3 13.6 236 10.2
2008-05-21 07:28:18 51°11.29 2°42.583 233.4 13.6 236 10.2
2008-05-21 07:28:23 51°11.279 2°42.559 232 13.5 234 10.3
2008-05-21 07:28:28 51°11.268 2°42.535 230.3 13.5 234 10.4
2008-05-21 07:28:33 51°11.255 2°42.512 229.3 13.7 230 10.4
2008-05-21 07:28:39 51°11.242 2°42.482 227.3 13.6 235 10.4
2008-05-21 07:28:43 51°11.232 2°42.465 228.9 13.4 230 10.5
2008-05-21 07:28:48 51°11.221 2°42.44 227.2 13.7 233 10.5
2008-05-21 07:28:53 51°11.209 2°42.417 227.5 13.6 232 10.5
2008-05-21 07:28:59 51°11.195 2°42.389 227.9 13.5 229 10.6
2008-05-21 07:29:03 51°11.187 2°42.369 226.1 13.5 235 10.6
2008-05-21 07:29:08 51°11.175 2°42.346 227.8 13.6 231 10.6
2008-05-21 07:29:13 51°11.164 2°42.321 228.3 13.7 237 10.6
2008-05-21 07:29:19 51°11.151 2°42.292 230.2 13.6 232 10.6
2008-05-21 07:29:23 51°11.143 2°42.273 230.2 13 238 10.7
2008-05-21 07:29:28 51°11.134 2°42.251 232.1 12 236 10.7
2008-05-21 07:29:33 51°11.126 2°42.229 233.1 11.3 240 10.8
2008-05-21 07:29:38 51°11.118 2°42.209 234.3 10.7 239 10.7
2008-05-21 07:29:43 51°11.112 2°42.189 235.8 10 242 10.8
2008-05-21 07:29:48 51°11.106 2°42.171 237.8 9.3 244 10.9
2008-05-21 07:29:53 51°11.101 2°42.153 240.9 8.8 247 10.9
2008-05-21 07:29:58 51°11.097 2°42.136 244.4 8.2 249 10.9
2008-05-21 07:30:03 51°11.094 2°42.12 247 7.6 252 11
2008-05-21 07:30:08 51°11.091 2°42.105 251.4 7 255 11
2008-05-21 07:30:13 51°11.089 2°42.091 254.8 6.4 256 10.9
2008-05-21 07:30:18 51°11.088 2°42.079 258.2 5.7 259 10.9
2008-05-21 07:30:23 51°11.086 2°42.067 260.9 5.1 259 11
2008-05-21 07:30:28 51°11.085 2°42.057 264.2 4.7 263 11
2008-05-21 07:30:33 51°11.084 2°42.048 267 4.3 258 10.9
2008-05-21 07:30:38 51°11.083 2°42.039 267.9 3.9 260 11
2008-05-21 07:30:43 51°11.082 2°42.032 266.5 3.6 255 10.9
2008-05-21 07:30:48 51°11.081 2°42.025 264.2 3.2 257 10.9
2008-05-21 07:30:53 51°11.079 2°42.018 261.9 3 253 10.9
2008-05-21 07:30:58 51°11.078 2°42.013 259.7 2.6 254 11
2008-05-21 07:31:03 51°11.077 2°42.008 257.4 2.4 251 11
2008-05-21 07:31:08 51°11.077 2°42.003 255.5 2.1 254 11
2008-05-21 07:31:13 51°11.076 2°41.999 253.5 1.9 249 11
2008-05-21 07:31:19 51°11.075 2°41.995 251.6 1.6 249 10.9
2008-05-21 07:31:23 51°11.074 2°41.993 249.8 1.4 247 10.9
2008-05-21 07:31:28 51°11.074 2°41.991 248.1 1.2 250 11
2008-05-21 07:31:33 51°11.073 2°41.988 246.7 1.1 245 10.9
2008-05-21 07:31:39 51°11.073 2°41.986 245 1 257 10.9
2008-05-21 07:31:43 51°11.073 2°41.985 243.7 0.8 253 10.9
2008-05-21 07:31:48 51°11.072 2°41.983 242.5 0.9 252 11
2008-05-21 07:31:53 51°11.072 2°41.981 241.4 0.9 248 10.9
2008-05-21 07:31:58 51°11.072 2°41.979 240.8 1 257 11
2008-05-21 07:32:03 51°11.071 2°41.977 239.7 1 256 11
2008-05-21 07:32:08 51°11.071 2°41.975 238.8 1 253 -999
2008-05-21 07:32:13 51°11.07 2°41.972 237.9 1 260 -999
2008-05-21 07:32:18 51°11.07 2°41.97 237.3 1 248 -999
2008-05-21 07:32:23 51°11.07 2°41.968 237 1.1 256 -999
2008-05-21 07:32:29 51°11.069 2°41.965 236.4 1.1 250 -999
2008-05-21 07:32:33 51°11.068 2°41.963 235.8 1.1 250 -999
2008-05-21 07:32:38 51°11.068 2°41.961 235.3 1.2 255 -999
2008-05-21 07:32:43 51°11.067 2°41.958 234.7 1.2 253 -999
2008-05-21 07:32:49 51°11.067 2°41.955 234.3 1.2 249 -999
2008-05-21 07:32:53 51°11.066 2°41.954 234.3 1.2 249 4.7
2008-05-21 07:32:58 51°11.066 2°41.951 233.7 1.2 252 4.8
2008-05-21 07:33:03 51°11.065 2°41.949 233.3 1.2 248 4.7